Time;durP1;ratioP1;P1;durP2;ratioP2;P2;SDS_P1;SDS_P2;PMS_P1;PMS_P2;Temp;Humidity;BMP_temperature;BMP_pressure;BME280_temperature;BME280_humidity;BME280_pressure;Samples;Min_cycle;Max_cycle;Signal;HPM_P1;HPM_P2
2022/04/22 00:00:29;;;;;;;;;;;6.20;99.90;;;;;;4983392;28;19922;-83
2022/04/22 00:03:16;;;;;;;;;;;6.10;99.90;;;;;;4991755;28;19933;-82
2022/04/22 00:06:03;;;;;;;;;;;6.00;99.90;;;;;;4995084;28;19986;-79
2022/04/22 00:08:50;;;;;;;;;;;5.90;99.90;;;;;;4998547;28;19917;-83
2022/04/22 00:11:37;;;;;;;;;;;5.90;99.90;;;;;;4991019;28;19925;-83
2022/04/22 00:14:26;;;;;;;;;;;6.00;99.90;;;;;;4989264;28;19922;-82
2022/04/22 00:17:13;;;;;;;;;;;6.00;99.90;;;;;;4984918;28;19929;-82
2022/04/22 00:20:00;;;;;;;;;;;5.90;99.90;;;;;;4979096;28;19933;-84
2022/04/22 00:22:47;;;;;;;;;;;6.00;99.90;;;;;;4977246;28;20236;-83
2022/04/22 00:25:34;;;;;;;;;;;6.00;99.90;;;;;;4977004;28;19937;-82
2022/04/22 00:28:25;;;;;;;;;;;5.90;99.90;;;;;;4960646;28;20391;-82
2022/04/22 00:31:15;;;;;;;;;;;5.80;99.90;;;;;;4976396;28;19941;-83
2022/04/22 00:34:10;;;;;;;;;;;5.80;99.90;;;;;;4976409;28;20009;-82
2022/04/22 00:36:57;;;;;;;;;;;5.80;99.90;;;;;;4944364;29;19926;-83
2022/04/22 00:39:44;;;;;;;;;;;5.70;99.90;;;;;;4975205;28;19932;-82
2022/04/22 00:42:31;;;;;;;;;;;5.70;99.90;;;;;;4968585;28;19925;-81
2022/04/22 00:45:21;;;;;;;;;;;5.60;99.90;;;;;;4978605;28;19926;-84
2022/04/22 00:48:08;;;;;;;;;;;5.50;99.90;;;;;;4986770;28;19922;-85
2022/04/22 00:50:56;;;;;;;;;;;5.50;99.90;;;;;;4981205;28;19922;-84
2022/04/22 00:53:47;;;;;;;;;;;5.60;99.90;;;;;;4985133;28;19926;-84
2022/04/22 00:56:35;;;;;;;;;;;5.60;99.90;;;;;;4970122;28;19922;-82
2022/04/22 00:59:23;;;;;;;;;;;5.60;99.90;;;;;;4973096;28;19929;-82
2022/04/22 01:02:10;;;;;;;;;;;5.60;99.90;;;;;;4974320;28;20272;-81
2022/04/22 01:11:11;;;;;;;;;;;5.60;99.90;;;;;;4974337;28;20008;-82
2022/04/22 01:13:59;;;;;;;;;;;5.60;99.90;;;;;;4974502;28;19922;-83
2022/04/22 01:16:46;;;;;;;;;;;5.60;99.90;;;;;;4974599;28;19929;-81
2022/04/22 01:19:34;;;;;;;;;;;5.60;99.90;;;;;;4958773;28;19945;-82
2022/04/22 01:22:27;;;;;;;;;;;5.50;99.90;;;;;;4955778;28;20242;-82
2022/04/22 01:25:14;;;;;;;;;;;5.40;99.90;;;;;;4972941;28;20006;-81
2022/04/22 01:28:02;;;;;;;;;;;5.30;99.90;;;;;;4975885;28;20307;-84
2022/04/22 01:30:53;;;;;;;;;;;5.40;99.90;;;;;;4969617;28;19928;-81
2022/04/22 01:33:40;;;;;;;;;;;5.40;99.90;;;;;;4962916;28;19932;-82
2022/04/22 01:36:27;;;;;;;;;;;5.40;99.90;;;;;;4991773;28;19925;-83
2022/04/22 01:39:14;;;;;;;;;;;5.40;99.90;;;;;;4980944;28;19949;-82
2022/04/22 01:42:02;;;;;;;;;;;5.40;99.90;;;;;;4972351;28;19949;-82
2022/04/22 01:44:49;;;;;;;;;;;5.30;99.90;;;;;;4958813;28;19933;-82
2022/04/22 01:47:36;;;;;;;;;;;5.30;99.90;;;;;;4959926;28;19926;-82
2022/04/22 01:50:26;;;;;;;;;;;5.20;99.90;;;;;;4982360;28;19922;-83
2022/04/22 01:53:13;;;;;;;;;;;5.20;99.90;;;;;;4973326;28;20345;-82
2022/04/22 01:56:00;;;;;;;;;;;5.10;99.90;;;;;;4972581;28;19921;-82
2022/04/22 01:58:50;;;;;;;;;;;5.00;99.90;;;;;;4985972;28;19926;-82
2022/04/22 02:01:39;;;;;;;;;;;4.90;99.90;;;;;;4973670;28;20050;-83
2022/04/22 02:04:29;;;;;;;;;;;4.90;99.90;;;;;;4980754;28;19945;-82
2022/04/22 02:07:16;;;;;;;;;;;4.90;99.90;;;;;;4976195;28;20021;-82
2022/04/22 02:10:03;;;;;;;;;;;4.80;99.90;;;;;;4972390;28;20010;-83
2022/04/22 02:12:50;;;;;;;;;;;4.80;99.90;;;;;;4981160;28;19926;-83
2022/04/22 02:15:38;;;;;;;;;;;4.70;99.90;;;;;;4990905;28;19925;-82
2022/04/22 02:18:25;;;;;;;;;;;4.70;99.90;;;;;;4958928;28;19926;-82
2022/04/22 02:21:12;;;;;;;;;;;4.70;99.90;;;;;;4967010;28;19972;-81
2022/04/22 02:24:02;;;;;;;;;;;4.70;99.90;;;;;;4972308;28;19942;-84
2022/04/22 02:29:54;;;;;;;;;;;4.70;99.90;;;;;;4972604;28;19953;-81
2022/04/22 02:32:41;;;;;;;;;;;4.70;99.90;;;;;;4973841;28;20001;-81
2022/04/22 02:35:29;;;;;;;;;;;4.60;99.90;;;;;;4961827;28;19929;-82
2022/04/22 02:38:16;;;;;;;;;;;4.60;99.90;;;;;;4966503;28;19938;-82
2022/04/22 02:47:14;;;;;;;;;;;4.40;99.90;;;;;;4974376;28;19922;-84
2022/04/22 02:50:01;;;;;;;;;;;4.30;99.90;;;;;;4985550;28;20260;-85
2022/04/22 02:52:49;;;;;;;;;;;4.20;99.90;;;;;;4974619;28;19965;-83
2022/04/22 02:55:38;;;;;;;;;;;4.10;99.90;;;;;;4967705;28;19922;-83
2022/04/22 02:58:25;;;;;;;;;;;4.10;99.90;;;;;;4978735;28;19922;-84
2022/04/22 03:01:13;;;;;;;;;;;4.00;99.90;;;;;;4973979;28;19933;-83
2022/04/22 03:04:00;;;;;;;;;;;4.00;99.90;;;;;;4970912;28;19977;-83
2022/04/22 03:06:47;;;;;;;;;;;4.10;99.90;;;;;;4962495;28;20303;-84
2022/04/22 03:09:37;;;;;;;;;;;4.20;99.90;;;;;;4991076;28;20311;-84
2022/04/22 03:12:24;;;;;;;;;;;4.20;99.90;;;;;;4963739;28;19922;-84
2022/04/22 03:15:11;;;;;;;;;;;4.10;99.90;;;;;;4975425;28;19929;-84
2022/04/22 03:17:58;;;;;;;;;;;3.90;99.90;;;;;;4961533;28;19922;-83
2022/04/22 03:20:46;;;;;;;;;;;3.90;99.90;;;;;;4970963;28;20347;-83
2022/04/22 03:23:33;;;;;;;;;;;3.90;99.90;;;;;;4957072;28;19930;-83
2022/04/22 03:26:20;;;;;;;;;;;3.90;99.90;;;;;;4964660;28;20372;-80
2022/04/22 03:29:11;;;;;;;;;;;3.80;99.90;;;;;;4973876;28;19932;-82
2022/04/22 03:32:00;;;;;;;;;;;3.80;99.90;;;;;;4975251;28;19969;-81
2022/04/22 03:34:50;;;;;;;;;;;3.60;99.90;;;;;;4952144;28;19933;-82
2022/04/22 03:37:37;;;;;;;;;;;3.60;99.90;;;;;;4989139;28;19921;-82
2022/04/22 03:40:24;;;;;;;;;;;3.70;99.90;;;;;;4973777;28;19922;-81
2022/04/22 03:43:11;;;;;;;;;;;3.60;99.90;;;;;;4978269;28;20327;-81
2022/04/22 03:45:59;;;;;;;;;;;3.60;99.90;;;;;;4965432;28;20309;-82
2022/04/22 03:48:47;;;;;;;;;;;3.60;99.90;;;;;;4981725;28;19930;-82
2022/04/22 03:51:34;;;;;;;;;;;3.60;99.90;;;;;;4974012;28;20347;-82
2022/04/22 03:54:24;;;;;;;;;;;3.60;99.90;;;;;;4984266;28;19926;-82
2022/04/22 04:00:18;;;;;;;;;;;3.50;99.90;;;;;;4966510;28;19922;-82
2022/04/22 04:03:11;;;;;;;;;;;3.50;99.90;;;;;;4976009;28;20027;-83
2022/04/22 04:05:58;;;;;;;;;;;3.60;99.90;;;;;;4980991;28;20350;-82
2022/04/22 04:15:57;;;;;;;;;;;3.60;99.90;;;;;;4981903;28;19921;-83
2022/04/22 04:18:08;;;;;;;;;;;3.50;99.90;;;;;;4981250;28;19955;-83
2022/04/22 04:24:03;;;;;;;;;;;3.40;99.90;;;;;;4975707;28;19922;-83
2022/04/22 04:26:52;;;;;;;;;;;3.30;99.90;;;;;;4981534;28;19922;-83
2022/04/22 04:29:39;;;;;;;;;;;3.30;99.90;;;;;;4980120;28;19929;-83
2022/04/22 04:32:29;;;;;;;;;;;3.20;99.90;;;;;;4964556;28;19964;-83
2022/04/22 04:35:16;;;;;;;;;;;3.20;99.90;;;;;;4961071;28;19933;-84
2022/04/22 04:38:05;;;;;;;;;;;3.30;99.90;;;;;;4967102;28;19937;-82
2022/04/22 04:40:55;;;;;;;;;;;3.20;99.90;;;;;;4969760;28;19922;-83
2022/04/22 04:43:42;;;;;;;;;;;3.30;99.90;;;;;;4965626;28;20224;-83
2022/04/22 04:46:32;;;;;;;;;;;3.20;99.90;;;;;;4975539;28;20178;-83
2022/04/22 04:49:19;;;;;;;;;;;3.30;99.90;;;;;;4981695;28;20232;-83
2022/04/22 04:52:09;;;;;;;;;;;3.40;99.90;;;;;;4983284;28;20037;-82
2022/04/22 04:54:57;;;;;;;;;;;3.40;99.90;;;;;;4989774;28;19930;-84
2022/04/22 04:57:44;;;;;;;;;;;3.50;99.90;;;;;;4974406;28;19953;-82
2022/04/22 05:00:35;;;;;;;;;;;3.60;99.90;;;;;;4967766;28;20075;-82
2022/04/22 05:03:23;;;;;;;;;;;3.70;99.90;;;;;;4975958;28;20011;-82
2022/04/22 05:06:12;;;;;;;;;;;3.80;99.90;;;;;;4971750;28;19961;-81
2022/04/22 05:09:06;;;;;;;;;;;3.80;99.90;;;;;;4982152;28;20371;-84
2022/04/22 05:11:54;;;;;;;;;;;3.80;99.90;;;;;;4994199;28;19925;-81
2022/04/22 05:14:41;;;;;;;;;;;4.00;99.90;;;;;;4993941;28;20366;-86
2022/04/22 05:17:30;;;;;;;;;;;4.10;99.90;;;;;;4970290;28;19926;-81
2022/04/22 05:20:23;;;;;;;;;;;4.20;99.90;;;;;;4974502;28;20197;-81
2022/04/22 05:23:10;;;;;;;;;;;4.20;99.90;;;;;;4984919;28;19925;-83
2022/04/22 05:25:57;;;;;;;;;;;4.30;99.90;;;;;;4962645;28;19933;-82
2022/04/22 05:28:44;;;;;;;;;;;4.40;99.90;;;;;;4975192;28;20355;-82
2022/04/22 05:34:47;;;;;;;;;;;4.60;99.90;;;;;;4967455;28;19977;-82
2022/04/22 05:37:43;;;;;;;;;;;4.70;99.90;;;;;;4981018;28;20213;-82
2022/04/22 05:40:31;;;;;;;;;;;4.90;99.90;;;;;;4947424;28;19969;-82
2022/04/22 05:43:18;;;;;;;;;;;5.00;99.90;;;;;;4989677;28;19925;-82
2022/04/22 05:46:05;;;;;;;;;;;5.10;99.90;;;;;;4982365;28;20250;-82
2022/04/22 05:48:53;;;;;;;;;;;5.20;99.90;;;;;;4976022;28;20235;-82
2022/04/22 05:51:42;;;;;;;;;;;5.40;99.90;;;;;;4987308;28;19934;-83
2022/04/22 05:54:30;;;;;;;;;;;5.50;99.90;;;;;;4992393;28;19929;-84
2022/04/22 05:57:20;;;;;;;;;;;5.60;99.90;;;;;;4985539;28;19921;-83
2022/04/22 06:00:08;;;;;;;;;;;5.70;99.90;;;;;;4969172;28;19976;-82
2022/04/22 06:02:56;;;;;;;;;;;5.80;99.90;;;;;;4954094;28;19930;-82
2022/04/22 06:05:43;;;;;;;;;;;5.90;99.90;;;;;;4960176;28;19962;-82
2022/04/22 06:11:36;;;;;;;;;;;6.20;99.90;;;;;;4986992;28;19922;-82
2022/04/22 06:14:23;;;;;;;;;;;6.20;99.90;;;;;;4969739;28;19942;-86
2022/04/22 06:17:12;;;;;;;;;;;6.40;99.90;;;;;;4973347;28;20339;-86
2022/04/22 06:20:02;;;;;;;;;;;6.50;99.90;;;;;;4983666;28;19973;-83
2022/04/22 06:22:49;;;;;;;;;;;6.70;99.90;;;;;;4974281;28;19983;-81
2022/04/22 06:25:36;;;;;;;;;;;6.90;99.90;;;;;;4971454;28;19921;-83
2022/04/22 06:28:28;;;;;;;;;;;7.00;99.90;;;;;;4992403;28;19932;-83
2022/04/22 06:31:20;;;;;;;;;;;7.10;99.90;;;;;;4983335;28;20342;-83
2022/04/22 06:34:07;;;;;;;;;;;7.40;99.90;;;;;;4983419;28;20013;-84
2022/04/22 06:37:00;;;;;;;;;;;7.60;99.90;;;;;;4974724;28;19922;-84
2022/04/22 06:45:59;;;;;;;;;;;8.30;99.90;;;;;;4986140;28;19922;-83
2022/04/22 06:48:47;;;;;;;;;;;8.50;99.90;;;;;;4985433;28;19969;-84
2022/04/22 06:51:34;;;;;;;;;;;8.60;99.90;;;;;;4992613;28;19926;-80
2022/04/22 06:54:22;;;;;;;;;;;8.80;99.90;;;;;;4990766;28;19993;-79
2022/04/22 06:57:12;;;;;;;;;;;9.00;99.90;;;;;;4993310;28;19956;-82
2022/04/22 06:59:59;;;;;;;;;;;9.20;99.90;;;;;;4980806;28;19926;-82
2022/04/22 07:02:47;;;;;;;;;;;9.60;99.90;;;;;;4996028;28;19918;-81
2022/04/22 07:08:14;;;;;;;;;;;10.30;99.90;;;;;;5310795;23;20009;-84
2022/04/22 07:11:02;;;;;;;;;;;10.50;99.90;;;;;;4970448;28;19933;-83
2022/04/22 07:13:49;;;;;;;;;;;10.90;99.90;;;;;;4971330;28;19930;-83
2022/04/22 07:16:44;;;;;;;;;;;11.20;99.90;;;;;;4964007;28;19991;-84
2022/04/22 07:19:32;;;;;;;;;;;11.70;99.90;;;;;;4964097;28;20332;-84
2022/04/22 07:22:20;;;;;;;;;;;12.00;99.90;;;;;;4960256;28;19926;-83
2022/04/22 07:25:08;;;;;;;;;;;12.20;99.90;;;;;;4958776;28;19923;-82
2022/04/22 07:27:58;;;;;;;;;;;12.30;99.90;;;;;;4975116;28;20026;-85
2022/04/22 07:30:50;;;;;;;;;;;12.50;99.90;;;;;;4949808;28;19997;-83
2022/04/22 07:33:38;;;;;;;;;;;12.80;99.90;;;;;;4943249;29;19922;-83
2022/04/22 07:36:25;;;;;;;;;;;13.10;99.90;;;;;;4953908;28;20321;-84
2022/04/22 07:39:15;;;;;;;;;;;13.20;99.90;;;;;;4950234;29;19923;-83
2022/04/22 07:42:06;;;;;;;;;;;13.50;99.90;;;;;;4944675;29;19958;-82
2022/04/22 07:48:00;;;;;;;;;;;14.00;99.60;;;;;;4944871;28;19926;-87
2022/04/22 07:50:52;;;;;;;;;;;14.40;97.00;;;;;;4948104;28;19976;-85
2022/04/22 07:53:42;;;;;;;;;;;14.60;96.10;;;;;;4973626;28;19929;-85
2022/04/22 07:56:32;;;;;;;;;;;14.30;95.80;;;;;;4948415;28;20352;-84
2022/04/22 07:59:20;;;;;;;;;;;14.60;94.70;;;;;;4969027;28;19937;-84
2022/04/22 08:02:07;;;;;;;;;;;15.10;92.90;;;;;;4936173;29;19929;-83
2022/04/22 08:04:55;;;;;;;;;;;15.40;93.00;;;;;;4962262;28;19993;-84
2022/04/22 08:07:42;;;;;;;;;;;16.00;90.20;;;;;;4960109;28;20010;-82
2022/04/22 08:10:30;;;;;;;;;;;15.40;87.50;;;;;;4948845;28;19945;-84
2022/04/22 08:13:21;;;;;;;;;;;15.50;88.80;;;;;;4954212;28;20001;-85
2022/04/22 08:16:08;;;;;;;;;;;16.00;85.80;;;;;;4944518;29;19973;-82
2022/04/22 08:18:56;;;;;;;;;;;16.20;84.50;;;;;;4956192;29;19949;-84
2022/04/22 08:21:53;;;;;;;;;;;16.40;83.70;;;;;;4960311;28;19933;-84
2022/04/22 08:24:40;;;;;;;;;;;16.50;80.40;;;;;;4978617;28;19929;-84
2022/04/22 08:27:28;;;;;;;;;;;16.40;80.40;;;;;;4946539;29;19938;-84
2022/04/22 08:30:16;;;;;;;;;;;16.40;78.40;;;;;;4954540;28;20395;-86
2022/04/22 08:33:04;;;;;;;;;;;16.70;80.00;;;;;;4957156;28;19981;-84
2022/04/22 08:35:52;;;;;;;;;;;17.20;77.10;;;;;;4954045;28;19953;-86
2022/04/22 08:38:40;;;;;;;;;;;17.70;74.50;;;;;;4956435;28;20251;-84
2022/04/22 08:41:27;;;;;;;;;;;17.80;71.50;;;;;;4956427;28;19922;-86
2022/04/22 08:44:14;;;;;;;;;;;18.00;66.80;;;;;;4963370;28;20000;-84
2022/04/22 08:50:16;;;;;;;;;;;18.60;68.80;;;;;;4959392;28;19927;-84
2022/04/22 08:53:05;;;;;;;;;;;18.90;65.60;;;;;;4957821;28;19923;-84
2022/04/22 08:55:57;;;;;;;;;;;18.60;65.50;;;;;;4958600;28;19933;-84
2022/04/22 08:58:47;;;;;;;;;;;18.80;64.90;;;;;;4945702;28;19926;-83
2022/04/22 09:01:37;;;;;;;;;;;18.30;62.20;;;;;;4954935;28;20296;-84
2022/04/22 09:04:26;;;;;;;;;;;18.00;65.30;;;;;;4957251;28;19929;-84
2022/04/22 09:07:14;;;;;;;;;;;18.10;63.70;;;;;;4942119;28;19941;-84
2022/04/22 09:10:02;;;;;;;;;;;18.10;62.90;;;;;;4955623;28;20305;-85
2022/04/22 09:12:54;;;;;;;;;;;18.40;64.10;;;;;;4955855;28;20253;-83
2022/04/22 09:15:42;;;;;;;;;;;18.50;62.10;;;;;;4939295;28;19986;-82
2022/04/22 09:19:08;;;;;;;;;;;18.50;62.30;;;;;;4956697;28;19937;-86
2022/04/22 09:21:56;;;;;;;;;;;18.60;62.60;;;;;;4941726;29;19923;-84
2022/04/22 09:24:54;;;;;;;;;;;18.00;63.60;;;;;;4937867;28;19949;-84
2022/04/22 09:27:42;;;;;;;;;;;18.50;64.90;;;;;;4948666;28;20033;-85
2022/04/22 09:30:30;;;;;;;;;;;19.20;62.10;;;;;;4946186;28;19973;-85
2022/04/22 09:33:18;;;;;;;;;;;19.30;62.10;;;;;;4956541;28;20403;-84
2022/04/22 09:42:43;;;;;;;;;;;19.40;60.60;;;;;;4952098;28;19932;-84
2022/04/22 09:45:36;;;;;;;;;;;20.50;59.00;;;;;;4953360;28;19930;-84
2022/04/22 09:48:26;;;;;;;;;;;20.70;57.70;;;;;;4941218;29;20331;-84
2022/04/22 09:51:22;;;;;;;;;;;20.80;54.40;;;;;;4935216;29;19971;-84
2022/04/22 09:54:10;;;;;;;;;;;20.80;57.00;;;;;;4934226;28;19929;-84
2022/04/22 09:56:58;;;;;;;;;;;21.30;56.90;;;;;;4953119;28;19934;-85
2022/04/22 09:59:45;;;;;;;;;;;20.40;54.90;;;;;;4950401;28;19927;-84
2022/04/22 10:02:32;;;;;;;;;;;20.60;56.20;;;;;;4955735;28;19922;-84
2022/04/22 10:05:21;;;;;;;;;;;20.70;55.70;;;;;;4953758;29;20228;-84
2022/04/22 10:08:08;;;;;;;;;;;19.40;58.60;;;;;;4952463;28;20034;-84
2022/04/22 10:10:59;;;;;;;;;;;19.60;58.40;;;;;;4953475;29;20332;-85
2022/04/22 10:13:50;;;;;;;;;;;20.70;57.10;;;;;;4943061;28;19926;-86
2022/04/22 10:16:39;;;;;;;;;;;21.30;55.70;;;;;;4955416;28;19970;-80
2022/04/22 10:19:31;;;;;;;;;;;21.40;53.00;;;;;;4959106;28;20321;-85
2022/04/22 10:22:19;;;;;;;;;;;21.30;55.00;;;;;;4948594;28;19922;-85
2022/04/22 10:25:10;;;;;;;;;;;20.90;53.90;;;;;;4958812;28;19945;-82
2022/04/22 10:28:00;;;;;;;;;;;21.70;52.70;;;;;;4956012;28;19930;-84
2022/04/22 10:30:47;;;;;;;;;;;21.60;51.70;;;;;;4952689;28;20407;-80
2022/04/22 10:33:41;;;;;;;;;;;21.80;52.90;;;;;;4968321;28;19956;-80
2022/04/22 10:36:32;;;;;;;;;;;21.70;52.00;;;;;;4968091;28;19929;-81
2022/04/22 10:39:34;;;;;;;;;;;21.20;52.60;;;;;;4935140;28;19922;-82
2022/04/22 10:42:32;;;;;;;;;;;21.10;53.60;;;;;;4958190;29;19922;-82
2022/04/22 10:48:30;;;;;;;;;;;21.70;52.40;;;;;;4957946;29;20255;-83
2022/04/22 10:51:18;;;;;;;;;;;20.90;52.40;;;;;;4958074;29;19934;-82
2022/04/22 10:54:06;;;;;;;;;;;21.10;55.50;;;;;;4967766;29;19934;-84
2022/04/22 10:57:04;;;;;;;;;;;22.00;51.90;;;;;;4973140;28;19922;-83
2022/04/22 11:00:03;;;;;;;;;;;22.00;51.20;;;;;;4966210;28;19926;-85
2022/04/22 11:02:58;;;;;;;;;;;22.10;52.00;;;;;;4954779;28;19991;-83
2022/04/22 11:05:55;;;;;;;;;;;23.00;49.90;;;;;;4957534;28;19941;-82
2022/04/22 11:08:58;;;;;;;;;;;23.30;49.60;;;;;;4943731;28;19941;-85
2022/04/22 11:11:45;;;;;;;;;;;23.50;49.60;;;;;;4948072;28;19941;-86
2022/04/22 11:14:44;;;;;;;;;;;23.30;48.50;;;;;;4957284;28;19945;-84
2022/04/22 11:17:32;;;;;;;;;;;22.50;49.70;;;;;;4957093;28;19930;-83
2022/04/22 11:20:20;;;;;;;;;;;22.00;48.70;;;;;;4959511;28;20347;-86
2022/04/22 11:23:12;;;;;;;;;;;22.10;51.70;;;;;;4965180;28;19929;-83
2022/04/22 11:26:00;;;;;;;;;;;21.90;49.60;;;;;;4972418;28;19922;-84
2022/04/22 11:28:49;;;;;;;;;;;22.50;49.10;;;;;;4959401;28;20244;-87
2022/04/22 11:31:37;;;;;;;;;;;22.70;49.20;;;;;;4950231;29;20363;-84
2022/04/22 11:34:43;;;;;;;;;;;23.30;47.60;;;;;;4964765;28;19930;-86
2022/04/22 11:37:30;;;;;;;;;;;22.80;47.50;;;;;;4945071;28;19926;-83
2022/04/22 11:40:18;;;;;;;;;;;23.00;49.10;;;;;;4959045;29;19978;-83
2022/04/22 11:43:09;;;;;;;;;;;22.60;49.10;;;;;;4944762;28;19922;-81
2022/04/22 11:45:59;;;;;;;;;;;22.70;48.40;;;;;;4950614;28;19929;-82
2022/04/22 11:48:47;;;;;;;;;;;22.50;49.30;;;;;;4946103;28;19926;-83
2022/04/22 11:51:37;;;;;;;;;;;23.00;46.50;;;;;;4957448;28;19922;-83
2022/04/22 11:54:25;;;;;;;;;;;24.10;47.70;;;;;;4956436;28;19926;-83
2022/04/22 11:57:15;;;;;;;;;;;22.50;46.30;;;;;;4958143;28;20308;-81
2022/04/22 12:06:21;;;;;;;;;;;23.70;47.60;;;;;;4959086;28;19985;-83
2022/04/22 12:09:08;;;;;;;;;;;24.10;46.10;;;;;;4961520;28;19922;-85
2022/04/22 12:12:05;;;;;;;;;;;24.40;46.80;;;;;;4945769;28;19923;-85
2022/04/22 12:15:04;;;;;;;;;;;24.00;44.90;;;;;;4958167;28;20027;-85
2022/04/22 12:17:54;;;;;;;;;;;24.20;45.80;;;;;;4926986;29;20008;-84
2022/04/22 12:20:42;;;;;;;;;;;24.60;45.00;;;;;;4960252;28;20367;-85
2022/04/22 12:23:40;;;;;;;;;;;24.70;44.30;;;;;;4948205;28;19983;-83
2022/04/22 12:26:35;;;;;;;;;;;24.90;44.10;;;;;;4941498;29;19922;-85
2022/04/22 12:29:24;;;;;;;;;;;25.70;44.20;;;;;;4951765;29;19923;-83
2022/04/22 12:32:13;;;;;;;;;;;25.40;42.60;;;;;;4951288;29;19942;-83
2022/04/22 12:35:11;;;;;;;;;;;24.20;43.50;;;;;;4951622;28;20368;-82
2022/04/22 12:38:04;;;;;;;;;;;24.40;44.50;;;;;;4949277;28;19944;-84
2022/04/22 12:40:52;;;;;;;;;;;23.60;45.10;;;;;;4949772;29;19922;-83
2022/04/22 12:43:48;;;;;;;;;;;22.40;46.70;;;;;;4957017;28;20304;-87
2022/04/22 12:52:53;;;;;;;;;;;21.60;50.00;;;;;;4966018;28;19933;-84
2022/04/22 12:55:40;;;;;;;;;;;22.10;48.70;;;;;;4965328;28;19993;-86
2022/04/22 12:58:28;;;;;;;;;;;21.60;49.20;;;;;;4961626;28;20343;-85
2022/04/22 13:01:27;;;;;;;;;;;22.90;49.50;;;;;;4971696;28;20018;-86
2022/04/22 13:04:27;;;;;;;;;;;24.60;46.50;;;;;;4969336;28;20366;-85
2022/04/22 13:07:15;;;;;;;;;;;24.30;42.60;;;;;;4965992;28;19944;-85
2022/04/22 13:10:06;;;;;;;;;;;24.30;44.40;;;;;;4970422;28;19922;-85
2022/04/22 13:12:56;;;;;;;;;;;25.10;44.20;;;;;;4970586;28;19922;-86
2022/04/22 13:15:44;;;;;;;;;;;25.80;42.60;;;;;;4962409;28;19922;-88
2022/04/22 13:18:33;;;;;;;;;;;25.70;41.60;;;;;;4958012;28;20035;-83
2022/04/22 13:21:20;;;;;;;;;;;26.10;42.90;;;;;;4948586;28;19937;-86
2022/04/22 13:24:07;;;;;;;;;;;26.20;41.40;;;;;;4936238;29;19927;-86
2022/04/22 13:26:55;;;;;;;;;;;27.10;40.20;;;;;;4970115;28;19929;-85
2022/04/22 13:29:42;;;;;;;;;;;25.90;40.40;;;;;;4960182;28;20343;-86
2022/04/22 13:32:29;;;;;;;;;;;25.30;41.80;;;;;;4960459;28;19932;-84
2022/04/22 13:35:16;;;;;;;;;;;24.80;41.40;;;;;;4968842;28;19926;-84
2022/04/22 13:38:04;;;;;;;;;;;24.60;42.00;;;;;;4964677;28;19926;-83
2022/04/22 13:40:53;;;;;;;;;;;24.90;43.50;;;;;;4955901;28;20406;-84
2022/04/22 13:43:46;;;;;;;;;;;24.30;42.40;;;;;;4956659;28;19937;-84
2022/04/22 13:52:46;;;;;;;;;;;22.80;45.70;;;;;;4957312;28;20331;-83
2022/04/22 13:55:41;;;;;;;;;;;23.60;44.90;;;;;;4944432;28;19922;-83
2022/04/22 13:58:28;;;;;;;;;;;23.20;43.90;;;;;;4935743;28;19922;-85
2022/04/22 14:01:15;;;;;;;;;;;22.20;45.90;;;;;;4955825;28;19985;-83
2022/04/22 14:04:03;;;;;;;;;;;22.00;46.50;;;;;;4964731;28;20012;-84
2022/04/22 14:06:50;;;;;;;;;;;22.90;45.80;;;;;;4955308;28;20025;-83
2022/04/22 14:09:41;;;;;;;;;;;22.90;44.60;;;;;;4965501;28;19965;-85
2022/04/22 14:12:29;;;;;;;;;;;23.70;43.50;;;;;;4960106;28;20327;-86
2022/04/22 14:15:17;;;;;;;;;;;24.00;43.80;;;;;;4956742;28;19977;-85
2022/04/22 14:18:07;;;;;;;;;;;24.10;43.20;;;;;;4968698;28;20040;-86
2022/04/22 14:20:59;;;;;;;;;;;25.00;41.40;;;;;;4967451;29;19922;-83
2022/04/22 14:23:52;;;;;;;;;;;24.50;43.50;;;;;;4966398;29;19981;-84
2022/04/22 14:26:40;;;;;;;;;;;25.70;39.60;;;;;;4961438;29;19958;-84
2022/04/22 14:29:53;;;;;;;;;;;26.90;40.60;;;;;;4970216;29;19938;-84
2022/04/22 14:32:41;;;;;;;;;;;26.60;38.60;;;;;;4964678;28;19926;-85
2022/04/22 14:35:31;;;;;;;;;;;27.00;37.70;;;;;;4972811;28;19910;-83
2022/04/22 14:38:19;;;;;;;;;;;26.00;37.10;;;;;;4976050;28;19922;-86
2022/04/22 14:41:06;;;;;;;;;;;26.00;39.60;;;;;;4968280;28;19922;-86
2022/04/22 14:43:55;;;;;;;;;;;25.50;40.30;;;;;;4971908;28;19923;-85
2022/04/22 14:46:43;;;;;;;;;;;24.80;40.60;;;;;;4963480;29;19926;-82
2022/04/22 14:49:32;;;;;;;;;;;24.60;41.30;;;;;;4961295;28;19929;-86
2022/04/22 14:52:23;;;;;;;;;;;24.20;43.10;;;;;;4955024;29;20219;-83
2022/04/22 14:55:13;;;;;;;;;;;24.60;40.70;;;;;;4955562;28;20351;-86
2022/04/22 14:58:01;;;;;;;;;;;24.50;41.50;;;;;;4965471;28;20034;-84
2022/04/22 15:00:49;;;;;;;;;;;23.20;41.90;;;;;;4937620;29;19922;-85
2022/04/22 15:03:36;;;;;;;;;;;21.80;44.20;;;;;;4959720;28;19926;-83
2022/04/22 15:06:24;;;;;;;;;;;20.60;47.40;;;;;;4957587;28;19930;-87
2022/04/22 15:09:15;;;;;;;;;;;20.20;48.70;;;;;;4970940;28;20028;-87
2022/04/22 15:12:03;;;;;;;;;;;20.40;50.40;;;;;;4955143;28;20350;-87
2022/04/22 15:14:50;;;;;;;;;;;21.10;47.60;;;;;;4966615;28;19922;-84
2022/04/22 15:26:58;;;;;;;;;;;23.90;42.70;;;;;;4952251;29;19927;-84
2022/04/22 15:29:45;;;;;;;;;;;21.80;44.20;;;;;;4958327;29;19933;-85
2022/04/22 15:32:33;;;;;;;;;;;20.70;47.80;;;;;;4949645;29;19934;-86
2022/04/22 15:35:21;;;;;;;;;;;20.90;48.50;;;;;;4954241;29;20355;-85
2022/04/22 15:38:09;;;;;;;;;;;21.60;45.90;;;;;;4966697;28;20244;-85
2022/04/22 15:40:58;;;;;;;;;;;21.30;46.00;;;;;;4957801;28;19926;-83
2022/04/22 15:43:50;;;;;;;;;;;20.80;48.10;;;;;;4954315;29;19922;-85
2022/04/22 15:46:41;;;;;;;;;;;20.70;48.50;;;;;;4957157;28;19977;-84
2022/04/22 15:49:31;;;;;;;;;;;20.10;48.70;;;;;;4956823;29;19933;-83
2022/04/22 15:52:19;;;;;;;;;;;19.70;50.40;;;;;;4963921;28;19977;-84
2022/04/22 15:55:06;;;;;;;;;;;19.80;52.80;;;;;;4938554;29;19933;-84
2022/04/22 15:57:54;;;;;;;;;;;19.80;51.20;;;;;;4940537;28;19934;-85
2022/04/22 16:00:42;;;;;;;;;;;19.80;51.40;;;;;;4949584;29;19956;-85
2022/04/22 16:03:29;;;;;;;;;;;19.90;51.20;;;;;;4942659;29;19989;-87
2022/04/22 16:06:18;;;;;;;;;;;19.50;50.60;;;;;;4934242;29;19938;-83
2022/04/22 16:09:09;;;;;;;;;;;19.10;51.40;;;;;;4938584;28;20069;-84
2022/04/22 16:15:16;;;;;;;;;;;18.20;52.50;;;;;;4960161;28;19929;-84
2022/04/22 16:18:08;;;;;;;;;;;18.00;52.90;;;;;;4957799;29;20009;-85
2022/04/22 16:20:57;;;;;;;;;;;17.80;53.90;;;;;;4948073;29;19930;-86
2022/04/22 16:23:45;;;;;;;;;;;17.70;54.80;;;;;;4958282;28;20013;-86
2022/04/22 16:26:33;;;;;;;;;;;17.60;54.80;;;;;;4921489;29;19934;-83
2022/04/22 16:29:24;;;;;;;;;;;17.60;54.20;;;;;;4955465;29;19926;-84
2022/04/22 16:32:11;;;;;;;;;;;17.60;54.90;;;;;;4956780;28;19922;-84
2022/04/22 16:34:58;;;;;;;;;;;17.60;54.70;;;;;;4956974;28;19950;-82
2022/04/22 16:37:46;;;;;;;;;;;17.50;54.90;;;;;;4958085;28;19922;-85
2022/04/22 16:40:36;;;;;;;;;;;17.30;55.30;;;;;;4973741;28;19926;-83
2022/04/22 16:43:24;;;;;;;;;;;17.30;55.90;;;;;;4964960;28;19922;-84
2022/04/22 16:46:12;;;;;;;;;;;17.20;56.00;;;;;;4956087;29;19923;-85
2022/04/22 16:48:59;;;;;;;;;;;17.10;56.00;;;;;;4956694;28;19933;-85
2022/04/22 16:51:49;;;;;;;;;;;16.90;56.00;;;;;;4967542;28;20041;-84
2022/04/22 16:54:38;;;;;;;;;;;16.70;57.00;;;;;;4951959;28;20300;-84
2022/04/22 16:57:26;;;;;;;;;;;16.60;57.30;;;;;;4955850;29;19926;-84
2022/04/22 17:00:13;;;;;;;;;;;16.40;57.30;;;;;;4956138;28;19938;-83
2022/04/22 17:03:03;;;;;;;;;;;16.40;58.00;;;;;;4955965;28;20415;-83
2022/04/22 17:05:51;;;;;;;;;;;16.20;58.90;;;;;;4961138;28;20315;-84
2022/04/22 17:08:38;;;;;;;;;;;16.00;58.90;;;;;;4955043;28;19927;-84
2022/04/22 17:11:25;;;;;;;;;;;16.00;59.00;;;;;;4954262;28;19933;-84
2022/04/22 17:23:32;;;;;;;;;;;16.00;58.50;;;;;;4947744;29;20283;-82
2022/04/22 17:26:21;;;;;;;;;;;16.00;58.50;;;;;;4956614;28;19930;-85
2022/04/22 17:29:08;;;;;;;;;;;16.00;58.80;;;;;;4958584;28;19922;-83
2022/04/22 17:31:55;;;;;;;;;;;15.90;59.30;;;;;;4956131;28;19922;-84
2022/04/22 17:34:43;;;;;;;;;;;15.90;59.20;;;;;;4963466;28;19981;-82
2022/04/22 17:37:30;;;;;;;;;;;15.90;59.00;;;;;;4953696;29;19982;-84
2022/04/22 17:40:20;;;;;;;;;;;15.80;59.50;;;;;;4965569;28;20243;-82
2022/04/22 17:43:08;;;;;;;;;;;15.80;59.70;;;;;;4966158;28;19933;-84
2022/04/22 17:45:55;;;;;;;;;;;15.70;60.10;;;;;;4954204;29;19926;-84
2022/04/22 17:48:43;;;;;;;;;;;15.60;60.70;;;;;;4954465;28;19940;-84
2022/04/22 17:51:33;;;;;;;;;;;15.40;61.40;;;;;;4953910;28;19929;-83
2022/04/22 17:54:23;;;;;;;;;;;15.30;61.90;;;;;;4947254;28;19944;-83
2022/04/22 17:57:13;;;;;;;;;;;15.20;62.70;;;;;;4972665;28;19978;-84
2022/04/22 18:00:03;;;;;;;;;;;15.10;63.60;;;;;;4955056;28;20034;-82
2022/04/22 18:02:50;;;;;;;;;;;14.90;63.60;;;;;;4962127;28;19923;-82
2022/04/22 18:05:40;;;;;;;;;;;14.90;63.50;;;;;;4955554;28;20292;-83
2022/04/22 18:08:28;;;;;;;;;;;14.80;64.20;;;;;;4922414;29;19938;-83